sensor_id;sensor_type;location;lat;lon;timestamp;pressure;altitude;pressure_sealevel;temperature;humidity
55610;BME280;41486;52.502;13.486;2022-11-20T00:01:53;100594.16;;;-0.55;100.00
55610;BME280;41486;52.502;13.486;2022-11-20T00:04:21;100601.78;;;-0.50;100.00
55610;BME280;41486;52.502;13.486;2022-11-20T00:06:49;100590.31;;;-0.41;100.00
55610;BME280;41486;52.502;13.486;2022-11-20T00:09:17;100589.59;;;-0.45;100.00
55610;BME280;41486;52.502;13.486;2022-11-20T00:11:45;100584.56;;;-0.50;100.00
55610;BME280;41486;52.502;13.486;2022-11-20T00:14:13;100584.28;;;-0.42;100.00
55610;BME280;41486;52.502;13.486;2022-11-20T00:16:41;100584.41;;;-0.45;100.00
55610;BME280;41486;52.502;13.486;2022-11-20T00:19:10;100581.09;;;-0.50;100.00
55610;BME280;41486;52.502;13.486;2022-11-20T00:21:38;100585.19;;;-0.43;100.00
55610;BME280;41486;52.502;13.486;2022-11-20T00:24:08;100579.25;;;-0.46;100.00
55610;BME280;41486;52.502;13.486;2022-11-20T00:26:36;100583.81;;;-0.53;100.00
55610;BME280;41486;52.502;13.486;2022-11-20T00:29:05;100577.78;;;-0.27;100.00
55610;BME280;41486;52.502;13.486;2022-11-20T00:31:34;100586.84;;;-0.40;100.00
55610;BME280;41486;52.502;13.486;2022-11-20T00:34:03;100585.31;;;-0.46;100.00
55610;BME280;41486;52.502;13.486;2022-11-20T00:36:34;100583.47;;;-0.42;100.00
55610;BME280;41486;52.502;13.486;2022-11-20T00:39:02;100591.06;;;-0.38;100.00
55610;BME280;41486;52.502;13.486;2022-11-20T00:41:30;100588.56;;;-0.41;100.00
55610;BME280;41486;52.502;13.486;2022-11-20T00:43:58;100587.03;;;-0.46;100.00
55610;BME280;41486;52.502;13.486;2022-11-20T00:46:27;100585.25;;;-0.44;100.00
55610;BME280;41486;52.502;13.486;2022-11-20T00:48:56;100587.75;;;-0.41;100.00
55610;BME280;41486;52.502;13.486;2022-11-20T00:51:25;100588.50;;;-0.38;100.00
55610;BME280;41486;52.502;13.486;2022-11-20T00:53:56;100584.50;;;-0.48;100.00
55610;BME280;41486;52.502;13.486;2022-11-20T00:56:24;100584.00;;;-0.33;100.00
55610;BME280;41486;52.502;13.486;2022-11-20T00:58:52;100573.94;;;-0.42;100.00
55610;BME280;41486;52.502;13.486;2022-11-20T01:01:22;100585.75;;;-0.33;100.00
55610;BME280;41486;52.502;13.486;2022-11-20T01:03:53;100583.19;;;-0.35;100.00
55610;BME280;41486;52.502;13.486;2022-11-20T01:06:23;100583.13;;;-0.32;100.00
55610;BME280;41486;52.502;13.486;2022-11-20T01:08:53;100590.06;;;-0.34;100.00
55610;BME280;41486;52.502;13.486;2022-11-20T01:11:25;100584.06;;;-0.34;100.00
55610;BME280;41486;52.502;13.486;2022-11-20T01:13:54;100587.41;;;-0.30;100.00
55610;BME280;41486;52.502;13.486;2022-11-20T01:16:24;100584.81;;;-0.30;100.00
55610;BME280;41486;52.502;13.486;2022-11-20T01:18:55;100584.56;;;-0.50;100.00
55610;BME280;41486;52.502;13.486;2022-11-20T01:21:25;100589.13;;;-0.31;100.00
55610;BME280;41486;52.502;13.486;2022-11-20T01:23:54;100580.69;;;-0.36;100.00
55610;BME280;41486;52.502;13.486;2022-11-20T01:26:25;100580.84;;;-0.14;100.00
55610;BME280;41486;52.502;13.486;2022-11-20T01:28:54;100579.13;;;-0.15;100.00
55610;BME280;41486;52.502;13.486;2022-11-20T01:31:23;100569.78;;;-0.19;100.00
55610;BME280;41486;52.502;13.486;2022-11-20T01:33:54;100564.34;;;-0.38;100.00
55610;BME280;41486;52.502;13.486;2022-11-20T01:36:23;100571.72;;;-0.26;100.00
55610;BME280;41486;52.502;13.486;2022-11-20T01:38:52;100577.25;;;-0.37;100.00
55610;BME280;41486;52.502;13.486;2022-11-20T01:41:21;100573.41;;;-0.52;100.00
55610;BME280;41486;52.502;13.486;2022-11-20T01:44:05;100569.28;;;-0.30;100.00
55610;BME280;41486;52.502;13.486;2022-11-20T01:46:34;100569.28;;;-0.30;100.00
55610;BME280;41486;52.502;13.486;2022-11-20T01:49:08;100577.25;;;-0.37;100.00
55610;BME280;41486;52.502;13.486;2022-11-20T01:51:40;100571.66;;;-0.51;100.00
55610;BME280;41486;52.502;13.486;2022-11-20T01:54:13;100572.25;;;-0.43;100.00
55610;BME280;41486;52.502;13.486;2022-11-20T01:56:45;100568.16;;;-0.49;100.00
55610;BME280;41486;52.502;13.486;2022-11-20T01:59:18;100566.31;;;-0.45;100.00
55610;BME280;41486;52.502;13.486;2022-11-20T02:01:47;100562.81;;;-0.44;100.00
55610;BME280;41486;52.502;13.486;2022-11-20T02:04:16;100562.25;;;-0.54;100.00
55610;BME280;41486;52.502;13.486;2022-11-20T02:06:47;100561.44;;;-0.54;100.00
55610;BME280;41486;52.502;13.486;2022-11-20T02:09:16;100563.22;;;-0.56;100.00
55610;BME280;41486;52.502;13.486;2022-11-20T02:11:44;100563.22;;;-0.56;100.00
55610;BME280;41486;52.502;13.486;2022-11-20T02:14:12;100553.81;;;-0.59;100.00
55610;BME280;41486;52.502;13.486;2022-11-20T02:16:45;100552.63;;;-0.49;100.00
55610;BME280;41486;52.502;13.486;2022-11-20T02:19:22;100552.88;;;-0.56;100.00
55610;BME280;41486;52.502;13.486;2022-11-20T02:21:57;100550.75;;;-0.72;100.00
55610;BME280;41486;52.502;13.486;2022-11-20T02:24:29;100552.31;;;-0.66;100.00
55610;BME280;41486;52.502;13.486;2022-11-20T02:26:59;100549.94;;;-0.72;100.00
55610;BME280;41486;52.502;13.486;2022-11-20T02:29:32;100553.44;;;-0.75;100.00
55610;BME280;41486;52.502;13.486;2022-11-20T02:32:02;100545.00;;;-0.80;100.00
55610;BME280;41486;52.502;13.486;2022-11-20T02:34:30;100548.47;;;-0.81;100.00
55610;BME280;41486;52.502;13.486;2022-11-20T02:36:59;100550.91;;;-0.76;100.00
55610;BME280;41486;52.502;13.486;2022-11-20T02:39:29;100540.44;;;-0.72;100.00
55610;BME280;41486;52.502;13.486;2022-11-20T02:41:57;100546.28;;;-0.67;100.00
55610;BME280;41486;52.502;13.486;2022-11-20T02:44:25;100546.13;;;-0.60;100.00
55610;BME280;41486;52.502;13.486;2022-11-20T02:46:56;100542.59;;;-0.58;100.00
55610;BME280;41486;52.502;13.486;2022-11-20T02:49:24;100541.88;;;-0.63;100.00
55610;BME280;41486;52.502;13.486;2022-11-20T02:51:52;100542.25;;;-0.47;100.00
55610;BME280;41486;52.502;13.486;2022-11-20T02:54:21;100545.44;;;-0.39;100.00
55610;BME280;41486;52.502;13.486;2022-11-20T02:56:50;100544.16;;;-0.54;100.00
55610;BME280;41486;52.502;13.486;2022-11-20T02:59:19;100541.22;;;-0.43;100.00
55610;BME280;41486;52.502;13.486;2022-11-20T03:01:47;100539.59;;;-0.45;100.00
55610;BME280;41486;52.502;13.486;2022-11-20T03:04:15;100537.28;;;-0.53;100.00
55610;BME280;41486;52.502;13.486;2022-11-20T03:06:43;100538.84;;;-0.49;100.00
55610;BME280;41486;52.502;13.486;2022-11-20T03:09:12;100537.66;;;-0.66;100.00
55610;BME280;41486;52.502;13.486;2022-11-20T03:11:40;100541.38;;;-0.74;100.00
55610;BME280;41486;52.502;13.486;2022-11-20T03:14:10;100539.75;;;-0.77;100.00
55610;BME280;41486;52.502;13.486;2022-11-20T03:16:38;100530.56;;;-0.87;100.00
55610;BME280;41486;52.502;13.486;2022-11-20T03:19:06;100533.44;;;-0.68;100.00
55610;BME280;41486;52.502;13.486;2022-11-20T03:21:34;100523.78;;;-0.63;100.00
55610;BME280;41486;52.502;13.486;2022-11-20T03:24:03;100523.53;;;-0.55;100.00
55610;BME280;41486;52.502;13.486;2022-11-20T03:26:31;100526.34;;;-0.61;100.00
55610;BME280;41486;52.502;13.486;2022-11-20T03:29:01;100523.84;;;-0.65;100.00
55610;BME280;41486;52.502;13.486;2022-11-20T03:31:32;100524.31;;;-0.80;100.00
55610;BME280;41486;52.502;13.486;2022-11-20T03:34:01;100521.03;;;-0.57;100.00
55610;BME280;41486;52.502;13.486;2022-11-20T03:36:30;100522.44;;;-0.48;100.00
55610;BME280;41486;52.502;13.486;2022-11-20T03:38:58;100526.13;;;-0.55;100.00
55610;BME280;41486;52.502;13.486;2022-11-20T03:41:27;100521.25;;;-0.38;100.00
55610;BME280;41486;52.502;13.486;2022-11-20T03:43:57;100521.84;;;-0.56;100.00
55610;BME280;41486;52.502;13.486;2022-11-20T03:46:26;100525.25;;;-0.54;100.00
55610;BME280;41486;52.502;13.486;2022-11-20T03:48:56;100513.44;;;-0.63;100.00
55610;BME280;41486;52.502;13.486;2022-11-20T03:51:26;100522.84;;;-0.60;100.00
55610;BME280;41486;52.502;13.486;2022-11-20T03:53:56;100516.03;;;-0.63;100.00
55610;BME280;41486;52.502;13.486;2022-11-20T03:56:25;100517.38;;;-0.78;100.00
55610;BME280;41486;52.502;13.486;2022-11-20T03:58:54;100519.81;;;-0.73;100.00
55610;BME280;41486;52.502;13.486;2022-11-20T04:01:24;100525.53;;;-0.64;100.00
55610;BME280;41486;52.502;13.486;2022-11-20T04:03:54;100516.88;;;-0.62;100.00
55610;BME280;41486;52.502;13.486;2022-11-20T04:06:25;100519.91;;;-0.76;100.00
55610;BME280;41486;52.502;13.486;2022-11-20T04:08:54;100510.59;;;-0.82;100.00
55610;BME280;41486;52.502;13.486;2022-11-20T04:11:23;100514.25;;;-0.89;100.00
55610;BME280;41486;52.502;13.486;2022-11-20T04:13:52;100507.13;;;-0.81;100.00
55610;BME280;41486;52.502;13.486;2022-11-20T04:16:22;100517.16;;;-0.72;100.00
55610;BME280;41486;52.502;13.486;2022-11-20T04:18:51;100512.19;;;-0.78;100.00
55610;BME280;41486;52.502;13.486;2022-11-20T04:21:20;100516.47;;;-0.77;100.00
55610;BME280;41486;52.502;13.486;2022-11-20T04:23:53;100514.81;;;-0.80;100.00
55610;BME280;41486;52.502;13.486;2022-11-20T04:26:23;100518.13;;;-1.03;100.00
55610;BME280;41486;52.502;13.486;2022-11-20T04:28:52;100519.84;;;-1.03;100.00
55610;BME280;41486;52.502;13.486;2022-11-20T04:31:22;100518.69;;;-0.93;100.00
55610;BME280;41486;52.502;13.486;2022-11-20T04:33:51;100519.53;;;-0.92;100.00
55610;BME280;41486;52.502;13.486;2022-11-20T04:36:21;100518.72;;;-0.94;100.00
55610;BME280;41486;52.502;13.486;2022-11-20T04:38:51;100514.47;;;-0.96;100.00
55610;BME280;41486;52.502;13.486;2022-11-20T04:41:24;100514.53;;;-0.99;100.00
55610;BME280;41486;52.502;13.486;2022-11-20T04:43:54;100501.53;;;-0.96;100.00
55610;BME280;41486;52.502;13.486;2022-11-20T04:46:26;100507.41;;;-0.90;100.00
55610;BME280;41486;52.502;13.486;2022-11-20T04:48:55;100505.34;;;-0.79;100.00
55610;BME280;41486;52.502;13.486;2022-11-20T04:51:23;100505.63;;;-0.88;100.00
55610;BME280;41486;52.502;13.486;2022-11-20T04:53:53;100501.47;;;-0.92;100.00
55610;BME280;41486;52.502;13.486;2022-11-20T04:56:21;100495.56;;;-0.98;100.00
55610;BME280;41486;52.502;13.486;2022-11-20T04:58:49;100502.97;;;-0.87;100.00
55610;BME280;41486;52.502;13.486;2022-11-20T05:01:19;100498.00;;;-0.93;100.00
55610;BME280;41486;52.502;13.486;2022-11-20T05:03:48;100495.94;;;-0.82;100.00
55610;BME280;41486;52.502;13.486;2022-11-20T05:06:18;100492.50;;;-0.82;100.00
55610;BME280;41486;52.502;13.486;2022-11-20T05:08:47;100489.28;;;-0.89;100.00
55610;BME280;41486;52.502;13.486;2022-11-20T05:11:18;100484.00;;;-0.86;100.00
55610;BME280;41486;52.502;13.486;2022-11-20T05:13:46;100479.53;;;-1.07;100.00
55610;BME280;41486;52.502;13.486;2022-11-20T05:16:17;100478.84;;;-0.86;100.00
55610;BME280;41486;52.502;13.486;2022-11-20T05:18:46;100477.16;;;-0.87;100.00
55610;BME280;41486;52.502;13.486;2022-11-20T05:21:14;100476.72;;;-0.73;100.00
55610;BME280;41486;52.502;13.486;2022-11-20T05:23:44;100475.00;;;-0.72;100.00
55610;BME280;41486;52.502;13.486;2022-11-20T05:26:14;100468.72;;;-0.65;100.00
55610;BME280;41486;52.502;13.486;2022-11-20T05:28:44;100472.16;;;-0.65;100.00
55610;BME280;41486;52.502;13.486;2022-11-20T05:31:13;100475.97;;;-0.76;100.00
55610;BME280;41486;52.502;13.486;2022-11-20T05:33:45;100478.84;;;-0.59;100.00
55610;BME280;41486;52.502;13.486;2022-11-20T05:36:14;100470.16;;;-0.56;100.00
55610;BME280;41486;52.502;13.486;2022-11-20T05:38:44;100472.88;;;-0.34;100.00
55610;BME280;41486;52.502;13.486;2022-11-20T05:41:17;100464.41;;;-0.39;100.00
55610;BME280;41486;52.502;13.486;2022-11-20T05:43:48;100478.13;;;-0.37;100.00
55610;BME280;41486;52.502;13.486;2022-11-20T05:46:18;100470.91;;;-0.53;100.00
55610;BME280;41486;52.502;13.486;2022-11-20T05:48:53;100472.66;;;-0.53;100.00
55610;BME280;41486;52.502;13.486;2022-11-20T05:51:22;100469.63;;;-0.66;100.00
55610;BME280;41486;52.502;13.486;2022-11-20T05:53:50;100467.34;;;-0.50;100.00
55610;BME280;41486;52.502;13.486;2022-11-20T05:56:19;100472.09;;;-0.63;100.00
55610;BME280;41486;52.502;13.486;2022-11-20T05:58:49;100473.69;;;-0.59;100.00
55610;BME280;41486;52.502;13.486;2022-11-20T06:01:19;100473.75;;;-0.60;100.00
55610;BME280;41486;52.502;13.486;2022-11-20T06:03:48;100467.38;;;-0.77;100.00
55610;BME280;41486;52.502;13.486;2022-11-20T06:06:18;100470.06;;;-0.80;100.00
55610;BME280;41486;52.502;13.486;2022-11-20T06:08:47;100466.88;;;-0.61;100.00
55610;BME280;41486;52.502;13.486;2022-11-20T06:11:15;100470.38;;;-0.62;100.00
55610;BME280;41486;52.502;13.486;2022-11-20T06:13:44;100464.44;;;-0.66;100.00
55610;BME280;41486;52.502;13.486;2022-11-20T06:16:16;100468.13;;;-0.73;100.00
55610;BME280;41486;52.502;13.486;2022-11-20T06:18:44;100457.94;;;-0.78;100.00
55610;BME280;41486;52.502;13.486;2022-11-20T06:21:14;100459.63;;;-0.77;100.00
55610;BME280;41486;52.502;13.486;2022-11-20T06:23:43;100464.44;;;-0.93;100.00
55610;BME280;41486;52.502;13.486;2022-11-20T06:26:14;100465.03;;;-0.85;100.00
55610;BME280;41486;52.502;13.486;2022-11-20T06:28:42;100456.75;;;-0.96;100.00
55610;BME280;41486;52.502;13.486;2022-11-20T06:31:12;100469.75;;;-0.98;100.00
55610;BME280;41486;52.502;13.486;2022-11-20T06:33:42;100460.81;;;-0.87;100.00
55610;BME280;41486;52.502;13.486;2022-11-20T06:36:12;100463.78;;;-1.00;100.00
55610;BME280;41486;52.502;13.486;2022-11-20T06:38:41;100466.94;;;-0.90;100.00
55610;BME280;41486;52.502;13.486;2022-11-20T06:41:11;100464.44;;;-0.93;100.00
55610;BME280;41486;52.502;13.486;2022-11-20T06:43:39;100473.13;;;-0.96;100.00
55610;BME280;41486;52.502;13.486;2022-11-20T06:46:08;100464.97;;;-0.83;100.00
55610;BME280;41486;52.502;13.486;2022-11-20T06:48:37;100463.72;;;-0.70;100.00
55610;BME280;41486;52.502;13.486;2022-11-20T06:51:07;100456.44;;;-0.58;100.00
55610;BME280;41486;52.502;13.486;2022-11-20T06:53:36;100450.50;;;-0.62;100.00
55610;BME280;41486;52.502;13.486;2022-11-20T06:56:05;100456.63;;;-0.65;100.00
55610;BME280;41486;52.502;13.486;2022-11-20T06:58:34;100454.22;;;-0.44;100.00
55610;BME280;41486;52.502;13.486;2022-11-20T07:01:07;100453.81;;;-0.57;100.00
55610;BME280;41486;52.502;13.486;2022-11-20T07:03:37;100450.00;;;-0.46;100.00
55610;BME280;41486;52.502;13.486;2022-11-20T07:06:14;100452.94;;;-0.57;100.00
55610;BME280;41486;52.502;13.486;2022-11-20T07:08:42;100453.16;;;-0.64;100.00
55610;BME280;41486;52.502;13.486;2022-11-20T07:11:11;100444.31;;;-0.56;100.00
55610;BME280;41486;52.502;13.486;2022-11-20T07:13:39;100439.94;;;-0.54;100.00
55610;BME280;41486;52.502;13.486;2022-11-20T07:16:08;100449.53;;;-0.58;100.00
55610;BME280;41486;52.502;13.486;2022-11-20T07:18:36;100449.97;;;-0.72;100.00
55610;BME280;41486;52.502;13.486;2022-11-20T07:21:14;100455.69;;;-0.62;100.00
55610;BME280;41486;52.502;13.486;2022-11-20T07:23:42;100454.88;;;-0.64;100.00
55610;BME280;41486;52.502;13.486;2022-11-20T07:26:10;100453.41;;;-0.71;100.00
55610;BME280;41486;52.502;13.486;2022-11-20T07:28:38;100456.94;;;-0.74;100.00
55610;BME280;41486;52.502;13.486;2022-11-20T07:31:08;100458.72;;;-0.76;100.00
55610;BME280;41486;52.502;13.486;2022-11-20T07:33:47;100455.34;;;-0.78;100.00
55610;BME280;41486;52.502;13.486;2022-11-20T07:36:17;100459.97;;;-0.61;100.00
55610;BME280;41486;52.502;13.486;2022-11-20T07:38:45;100460.81;;;-0.60;100.00
55610;BME280;41486;52.502;13.486;2022-11-20T07:41:13;100446.59;;;-0.74;100.00
55610;BME280;41486;52.502;13.486;2022-11-20T07:43:43;100453.59;;;-0.77;100.00
55610;BME280;41486;52.502;13.486;2022-11-20T07:46:11;100447.81;;;-0.84;100.00
55610;BME280;41486;52.502;13.486;2022-11-20T07:48:39;100452.06;;;-0.83;100.00
55610;BME280;41486;52.502;13.486;2022-11-20T07:51:07;100441.97;;;-0.91;100.00
55610;BME280;41486;52.502;13.486;2022-11-20T07:53:37;100449.69;;;-0.89;100.00
55610;BME280;41486;52.502;13.486;2022-11-20T07:56:05;100433.53;;;-0.69;100.00
55610;BME280;41486;52.502;13.486;2022-11-20T07:58:33;100443.94;;;-0.71;100.00
55610;BME280;41486;52.502;13.486;2022-11-20T08:01:03;100439.13;;;-0.82;100.00
55610;BME280;41486;52.502;13.486;2022-11-20T08:03:31;100444.28;;;-0.82;100.00
55610;BME280;41486;52.502;13.486;2022-11-20T08:06:00;100447.47;;;-0.73;100.00
55610;BME280;41486;52.502;13.486;2022-11-20T08:08:28;100448.88;;;-0.91;100.00
55610;BME280;41486;52.502;13.486;2022-11-20T08:11:01;100444.00;;;-0.74;100.00
55610;BME280;41486;52.502;13.486;2022-11-20T08:13:43;100434.69;;;-0.78;100.00
55610;BME280;41486;52.502;13.486;2022-11-20T08:16:28;100433.75;;;-0.75;100.00
55610;BME280;41486;52.502;13.486;2022-11-20T08:18:56;100437.28;;;-0.78;100.00
55610;BME280;41486;52.502;13.486;2022-11-20T08:21:25;100432.56;;;-0.67;100.00
55610;BME280;41486;52.502;13.486;2022-11-20T08:23:52;100439.72;;;-0.75;100.00
55610;BME280;41486;52.502;13.486;2022-11-20T08:26:22;100427.16;;;-0.59;100.00
55610;BME280;41486;52.502;13.486;2022-11-20T08:28:53;100435.56;;;-0.52;100.00
55610;BME280;41486;52.502;13.486;2022-11-20T08:31:22;100426.94;;;-0.53;100.00
55610;BME280;41486;52.502;13.486;2022-11-20T08:33:51;100422.66;;;-0.52;100.00
55610;BME280;41486;52.502;13.486;2022-11-20T08:36:20;100421.84;;;-0.54;100.00
55610;BME280;41486;52.502;13.486;2022-11-20T08:38:49;100422.75;;;-0.55;100.00
55610;BME280;41486;52.502;13.486;2022-11-20T08:41:18;100429.31;;;-0.46;100.00
55610;BME280;41486;52.502;13.486;2022-11-20T08:43:55;100424.28;;;-0.50;100.00
55610;BME280;41486;52.502;13.486;2022-11-20T08:46:24;100423.75;;;-0.34;100.00
55610;BME280;41486;52.502;13.486;2022-11-20T08:48:53;100421.56;;;-0.46;100.00
55610;BME280;41486;52.502;13.486;2022-11-20T08:51:21;100421.31;;;-0.39;100.00
55610;BME280;41486;52.502;13.486;2022-11-20T08:53:49;100420.81;;;-0.49;100.00
55610;BME280;41486;52.502;13.486;2022-11-20T08:56:17;100419.03;;;-0.23;100.00
55610;BME280;41486;52.502;13.486;2022-11-20T08:58:45;100417.84;;;-0.38;100.00
55610;BME280;41486;52.502;13.486;2022-11-20T09:01:34;100416.72;;;-0.30;100.00
55610;BME280;41486;52.502;13.486;2022-11-20T09:04:02;100414.06;;;-0.29;100.00
55610;BME280;41486;52.502;13.486;2022-11-20T09:06:31;100408.34;;;-0.37;100.00
55610;BME280;41486;52.502;13.486;2022-11-20T09:08:59;100414.31;;;-0.35;100.00
55610;BME280;41486;52.502;13.486;2022-11-20T09:11:32;100410.72;;;-0.56;100.00
55610;BME280;41486;52.502;13.486;2022-11-20T09:14:00;100424.47;;;-0.56;100.00
55610;BME280;41486;52.502;13.486;2022-11-20T09:16:29;100428.66;;;-0.52;100.00
55610;BME280;41486;52.502;13.486;2022-11-20T09:18:58;100427.84;;;-0.54;100.00
55610;BME280;41486;52.502;13.486;2022-11-20T09:21:46;100425.69;;;-0.41;100.00
55610;BME280;41486;52.502;13.486;2022-11-20T09:24:14;100427.44;;;-0.41;100.00
55610;BME280;41486;52.502;13.486;2022-11-20T09:26:42;100429.81;;;0.38;100.00
55610;BME280;41486;52.502;13.486;2022-11-20T09:29:10;100431.41;;;-0.07;100.00
55610;BME280;41486;52.502;13.486;2022-11-20T09:31:38;100435.19;;;-0.41;100.00
55610;BME280;41486;52.502;13.486;2022-11-20T09:34:08;100427.09;;;-0.32;100.00
55610;BME280;41486;52.502;13.486;2022-11-20T09:36:52;100431.53;;;-0.36;100.00
55610;BME280;41486;52.502;13.486;2022-11-20T09:39:25;100430.41;;;-0.52;100.00
55610;BME280;41486;52.502;13.486;2022-11-20T09:45:00;100427.69;;;-0.49;100.00
55610;BME280;41486;52.502;13.486;2022-11-20T09:47:37;100425.16;;;-0.25;100.00
55610;BME280;41486;52.502;13.486;2022-11-20T09:50:24;100412.34;;;-0.28;100.00
55610;BME280;41486;52.502;13.486;2022-11-20T09:53:06;100416.81;;;-0.34;100.00
55610;BME280;41486;52.502;13.486;2022-11-20T09:55:39;100413.44;;;-0.36;100.00
55610;BME280;41486;52.502;13.486;2022-11-20T09:58:13;100416.00;;;-0.34;100.00
55610;BME280;41486;52.502;13.486;2022-11-20T10:00:43;100418.25;;;-0.25;100.00
55610;BME280;41486;52.502;13.486;2022-11-20T10:03:16;100412.34;;;-0.28;100.00
55610;BME280;41486;52.502;13.486;2022-11-20T10:05:47;100412.34;;;-0.28;100.00
55610;BME280;41486;52.502;13.486;2022-11-20T10:08:21;100410.59;;;-0.28;100.00
55610;BME280;41486;52.502;13.486;2022-11-20T10:10:54;100403.91;;;-0.34;100.00
55610;BME280;41486;52.502;13.486;2022-11-20T10:13:34;100403.47;;;-0.21;100.00
55610;BME280;41486;52.502;13.486;2022-11-20T10:16:17;100401.63;;;-0.18;100.00
55610;BME280;41486;52.502;13.486;2022-11-20T10:19:00;100396.63;;;-0.22;100.00
55610;BME280;41486;52.502;13.486;2022-11-20T10:21:39;100397.03;;;-0.09;100.00
55610;BME280;41486;52.502;13.486;2022-11-20T10:24:28;100398.34;;;-0.23;100.00
55610;BME280;41486;52.502;13.486;2022-11-20T10:27:21;100392.50;;;-0.28;100.00
55610;BME280;41486;52.502;13.486;2022-11-20T10:30:00;100399.66;;;-0.11;100.00
55610;BME280;41486;52.502;13.486;2022-11-20T10:32:33;100391.25;;;-0.41;100.00
55610;BME280;41486;52.502;13.486;2022-11-20T10:35:07;100385.53;;;-0.26;100.00
55610;BME280;41486;52.502;13.486;2022-11-20T10:37:45;100389.66;;;-0.45;100.00
55610;BME280;41486;52.502;13.486;2022-11-20T10:40:22;100383.00;;;-0.53;100.00
55610;BME280;41486;52.502;13.486;2022-11-20T10:42:53;100380.00;;;-0.40;100.00
55610;BME280;41486;52.502;13.486;2022-11-20T10:45:35;100380.31;;;-0.24;100.00
55610;BME280;41486;52.502;13.486;2022-11-20T10:48:12;100376.81;;;-0.23;100.00
55610;BME280;41486;52.502;13.486;2022-11-20T10:50:53;100365.09;;;-0.08;100.00
55610;BME280;41486;52.502;13.486;2022-11-20T10:53:36;100370.69;;;-0.21;100.00
55610;BME280;41486;52.502;13.486;2022-11-20T10:56:11;100371.56;;;-0.20;100.00
55610;BME280;41486;52.502;13.486;2022-11-20T10:58:52;100363.59;;;-0.16;100.00
55610;BME280;41486;52.502;13.486;2022-11-20T11:01:22;100366.16;;;-0.14;100.00
55610;BME280;41486;52.502;13.486;2022-11-20T11:03:53;100364.63;;;-0.20;100.00
55610;BME280;41486;52.502;13.486;2022-11-20T11:06:29;100370.44;;;-0.13;100.00
55610;BME280;41486;52.502;13.486;2022-11-20T11:09:06;100365.53;;;-0.21;100.00
55610;BME280;41486;52.502;13.486;2022-11-20T11:11:40;100372.47;;;0.01;100.00
55610;BME280;41486;52.502;13.486;2022-11-20T11:14:10;100369.94;;;0.23;100.00
55610;BME280;41486;52.502;13.486;2022-11-20T11:16:49;100380.22;;;0.71;100.00
55610;BME280;41486;52.502;13.486;2022-11-20T11:19:17;100368.88;;;0.29;100.00
55610;BME280;41486;52.502;13.486;2022-11-20T11:21:46;100374.44;;;0.42;100.00
55610;BME280;41486;52.502;13.486;2022-11-20T11:24:24;100371.88;;;0.40;100.00
55610;BME280;41486;52.502;13.486;2022-11-20T11:27:12;100365.72;;;0.67;100.00
55610;BME280;41486;52.502;13.486;2022-11-20T11:29:43;100357.41;;;0.58;100.00
55610;BME280;41486;52.502;13.486;2022-11-20T11:32:13;100358.41;;;0.76;100.00
55610;BME280;41486;52.502;13.486;2022-11-20T11:34:41;100360.81;;;0.37;100.00
55610;BME280;41486;52.502;13.486;2022-11-20T11:37:16;100363.13;;;0.44;100.00
55610;BME280;41486;52.502;13.486;2022-11-20T11:39:47;100357.09;;;0.44;100.00
55610;BME280;41486;52.502;13.486;2022-11-20T11:42:41;100348.03;;;0.10;100.00
55610;BME280;41486;52.502;13.486;2022-11-20T11:45:16;100348.94;;;0.09;100.00
55610;BME280;41486;52.502;13.486;2022-11-20T11:47:46;100348.34;;;0.24;100.00
55610;BME280;41486;52.502;13.486;2022-11-20T11:50:20;100345.75;;;0.24;100.00
55610;BME280;41486;52.502;13.486;2022-11-20T11:53:01;100339.31;;;0.12;100.00
55610;BME280;41486;52.502;13.486;2022-11-20T11:55:40;100349.41;;;0.19;100.00
55610;BME280;41486;52.502;13.486;2022-11-20T11:58:15;100338.69;;;0.06;100.00
55610;BME280;41486;52.502;13.486;2022-11-20T12:00:51;100342.06;;;0.08;100.00
55610;BME280;41486;52.502;13.486;2022-11-20T12:03:27;100338.84;;;0.01;100.00
55610;BME280;41486;52.502;13.486;2022-11-20T12:06:01;100341.00;;;0.13;100.00
55610;BME280;41486;52.502;13.486;2022-11-20T12:08:41;100334.84;;;0.16;100.00
55610;BME280;41486;52.502;13.486;2022-11-20T12:11:16;100331.88;;;0.03;100.00
55610;BME280;41486;52.502;13.486;2022-11-20T12:13:52;100328.63;;;-0.02;100.00
55610;BME280;41486;52.502;13.486;2022-11-20T12:16:24;100334.41;;;0.05;100.00
55610;BME280;41486;52.502;13.486;2022-11-20T12:18:53;100328.81;;;-0.07;100.00
55610;BME280;41486;52.502;13.486;2022-11-20T12:21:29;100337.19;;;0.00;100.00
55610;BME280;41486;52.502;13.486;2022-11-20T12:29:59;100322.28;;;0.29;100.00
55610;BME280;41486;52.502;13.486;2022-11-20T12:32:57;100319.94;;;0.45;100.00
55610;BME280;41486;52.502;13.486;2022-11-20T12:35:38;100322.69;;;0.40;100.00
55610;BME280;41486;52.502;13.486;2022-11-20T12:38:34;100326.25;;;0.60;100.00
55610;BME280;41486;52.502;13.486;2022-11-20T12:41:12;100320.66;;;0.49;100.00
55610;BME280;41486;52.502;13.486;2022-11-20T12:44:12;100316.09;;;0.55;100.00
55610;BME280;41486;52.502;13.486;2022-11-20T12:47:12;100313.50;;;0.55;100.00
55610;BME280;41486;52.502;13.486;2022-11-20T12:49:48;100304.94;;;0.53;100.00
55610;BME280;41486;52.502;13.486;2022-11-20T12:52:34;100299.00;;;0.51;100.00
55610;BME280;41486;52.502;13.486;2022-11-20T12:55:15;100296.50;;;0.70;100.00
55610;BME280;41486;52.502;13.486;2022-11-20T12:57:50;100300.06;;;0.68;100.00
55610;BME280;41486;52.502;13.486;2022-11-20T13:00:23;100292.94;;;0.73;100.00
55610;BME280;41486;52.502;13.486;2022-11-20T13:03:13;100293.72;;;0.75;100.00